Long Creek, North Carolina
Current Conditions -  °F | °C
As of 6:55 PM on Saturday 25 Oct 2014 (Local Time) from KJQF Reporting Station
Clear Clear  
Wind Chill: 64°   Ceiling: Unl
Heat Index: 64°   Visibility: 10mi
Dew Point: 43°   Wind: 0mph
Humidity: 45%   Direction: NA
Pressure: 29.98"   Gusts: NA
Location:  35.4129°N, 80.8607°W
Report Text: KJQF 252255Z 00000KT 10SM CLR 18/06 A2998
Loading
Personal Weather Stations






























Interactive Weather Map
Tropical Storm Tracking
New forecast layout! Learn more

10-Day Weather Forecast

Advertisements
Track Severe Weather on mobile